createdAt,value
2022-10-31T00:00:44.123Z,176.35
2022-10-31T00:01:47.112Z,97.82
2022-10-31T00:02:51.134Z,88.88
2022-10-31T00:03:54.437Z,64.47
2022-10-31T00:04:58.631Z,81.32
2022-10-31T00:06:02.955Z,95.90
2022-10-31T00:07:06.816Z,38.15
2022-10-31T00:08:09.662Z,33.33
2022-10-31T00:09:14.215Z,43.80
2022-10-31T00:10:17.173Z,34.17
2022-10-31T00:11:22.434Z,50.45
2022-10-31T00:12:25.164Z,45.63
2022-10-31T00:13:29.684Z,102.72
2022-10-31T00:14:32.473Z,190.40
2022-10-31T00:15:36.983Z,214.55
2022-10-31T00:16:41.923Z,212.18
2022-10-31T00:17:46.036Z,109.50
2022-10-31T00:18:50.293Z,90.18
2022-10-31T00:19:54.551Z,123.32
2022-10-31T00:21:01.554Z,37.47
2022-10-31T00:22:05.676Z,36.05
2022-10-31T00:23:08.951Z,43.08
2022-10-31T00:24:13.560Z,32.42
2022-10-31T00:25:16.596Z,91.28
2022-10-31T00:26:22.291Z,36.33
2022-10-31T00:27:25.165Z,117.80
2022-10-31T00:28:33.338Z,36.13
2022-10-31T00:29:36.254Z,80.65
2022-10-31T00:30:40.384Z,73.50
2022-10-31T00:31:43.417Z,83.93
2022-10-31T00:32:47.583Z,38.40
2022-10-31T00:33:50.635Z,116.88
2022-10-31T00:34:55.914Z,31.13
2022-10-31T00:35:59.484Z,30.83
2022-10-31T00:37:03.561Z,101.18
2022-10-31T00:38:06.450Z,62.38
2022-10-31T00:39:10.565Z,40.35
2022-10-31T00:40:13.714Z,32.30
2022-10-31T00:41:18.931Z,40.35
2022-10-31T00:42:23.253Z,37.28
2022-10-31T00:43:27.151Z,73.97
2022-10-31T00:44:29.970Z,61.22
2022-10-31T00:45:33.813Z,53.83
2022-10-31T00:46:36.615Z,70.57
2022-10-31T00:47:40.575Z,29.77
2022-10-31T00:48:43.823Z,41.03
2022-10-31T00:49:47.724Z,35.90
2022-10-31T00:50:50.533Z,51.67
2022-10-31T00:51:54.347Z,33.67
2022-10-31T00:52:58.173Z,34.60
2022-10-31T00:54:02.175Z,22.27
2022-10-31T00:55:05.732Z,30.98
2022-10-31T00:56:09.882Z,60.75
2022-10-31T00:57:13.134Z,99.57
2022-10-31T00:58:19.161Z,103.50
2022-10-31T00:59:21.922Z,28.75
2022-10-31T01:00:25.901Z,21.13
2022-10-31T01:01:29.330Z,23.65
2022-10-31T01:02:34.092Z,17.95
2022-10-31T01:03:37.164Z,20.45
2022-10-31T01:04:41.063Z,20.08
2022-10-31T01:05:43.935Z,17.10
2022-10-31T01:06:48.347Z,53.28
2022-10-31T01:07:52.684Z,17.10
2022-10-31T01:08:56.524Z,59.20
2022-10-31T01:09:59.771Z,68.90
2022-10-31T01:11:07.503Z,37.35
2022-10-31T01:12:10.354Z,28.00
2022-10-31T01:13:16.788Z,41.10
2022-10-31T01:14:23.343Z,69.15
2022-10-31T01:15:27.766Z,45.20
2022-10-31T01:16:31.007Z,71.00
2022-10-31T01:17:35.247Z,25.50
2022-10-31T01:18:38.775Z,28.80
2022-10-31T01:19:42.643Z,27.65
2022-10-31T01:20:45.683Z,30.77
2022-10-31T01:21:49.763Z,81.78
2022-10-31T01:22:52.572Z,44.33
2022-10-31T01:23:57.573Z,22.45
2022-10-31T01:25:01.113Z,26.38
2022-10-31T01:26:08.749Z,24.40
2022-10-31T01:27:11.482Z,19.17
2022-10-31T01:28:15.833Z,23.73
2022-10-31T01:29:18.709Z,16.65
2022-10-31T01:30:23.966Z,19.17
2022-10-31T01:31:28.919Z,33.75
2022-10-31T01:32:33.573Z,35.78
2022-10-31T01:33:36.783Z,32.78
2022-10-31T01:34:40.613Z,18.05
2022-10-31T01:35:43.685Z,25.83
2022-10-31T01:36:52.562Z,49.50
2022-10-31T01:37:55.450Z,60.17
2022-10-31T01:39:00.804Z,38.65
2022-10-31T01:40:03.889Z,24.60
2022-10-31T01:41:07.852Z,22.10
2022-10-31T01:42:12.959Z,35.03
2022-10-31T01:43:16.131Z,17.92
2022-10-31T01:44:53.388Z,15.40
2022-10-31T01:46:01.040Z,27.02
2022-10-31T01:47:07.723Z,16.38
2022-10-31T01:48:16.133Z,23.85
2022-10-31T01:49:23.442Z,55.58
2022-10-31T01:50:32.422Z,48.50
2022-10-31T01:51:37.781Z,42.85
2022-10-31T01:52:43.825Z,19.90
2022-10-31T01:53:47.479Z,65.35
2022-10-31T01:54:53.711Z,79.68
2022-10-31T01:55:57.860Z,81.22
2022-10-31T01:57:01.167Z,44.47
2022-10-31T01:58:08.269Z,47.60
2022-10-31T01:59:13.460Z,44.17
2022-10-31T02:00:18.671Z,28.52
2022-10-31T02:01:23.074Z,47.25
2022-10-31T02:02:28.209Z,46.80
2022-10-31T02:03:32.660Z,40.58
2022-10-31T02:04:36.560Z,70.80
2022-10-31T02:06:01.922Z,30.08
2022-10-31T02:07:07.799Z,31.13
2022-10-31T02:08:16.158Z,40.25
2022-10-31T02:09:22.132Z,39.50
2022-10-31T02:10:26.291Z,27.15
2022-10-31T02:11:29.975Z,19.80
2022-10-31T02:12:35.990Z,18.13
2022-10-31T02:13:40.319Z,19.20
2022-10-31T02:14:44.491Z,18.10
2022-10-31T02:15:50.720Z,20.58
2022-10-31T02:16:55.928Z,23.13
2022-10-31T02:18:00.062Z,27.40
2022-10-31T02:19:04.161Z,25.50
2022-10-31T02:20:15.801Z,30.08
2022-10-31T02:21:21.021Z,88.43
2022-10-31T02:22:29.680Z,52.05
2022-10-31T02:24:03.460Z,50.70
2022-10-31T02:25:34.392Z,146.68
2022-10-31T02:26:57.388Z,105.18
2022-10-31T02:28:27.570Z,155.23
2022-10-31T02:29:54.961Z,25.70
2022-10-31T02:31:21.361Z,25.75
2022-10-31T02:32:28.968Z,23.73
2022-10-31T02:33:39.000Z,76.85
2022-10-31T02:34:53.299Z,33.30
2022-10-31T02:36:05.590Z,32.97
2022-10-31T02:37:13.639Z,29.00
2022-10-31T02:38:25.758Z,65.53
2022-10-31T02:39:32.779Z,51.80
2022-10-31T02:40:39.718Z,29.50
2022-10-31T02:42:10.518Z,29.75
2022-10-31T02:43:17.515Z,37.15
2022-10-31T02:44:25.410Z,23.55
2022-10-31T02:45:31.796Z,23.08
2022-10-31T02:46:41.111Z,21.60
2022-10-31T02:47:46.790Z,30.75
2022-10-31T02:48:51.217Z,31.48
2022-10-31T02:49:57.879Z,28.00
2022-10-31T02:51:03.900Z,43.85
2022-10-31T02:52:16.072Z,27.30
2022-10-31T02:53:19.990Z,24.10
2022-10-31T02:54:24.700Z,26.70
2022-10-31T02:55:49.400Z,25.10
2022-10-31T02:56:56.239Z,18.75
2022-10-31T02:58:02.773Z,22.10
2022-10-31T02:59:07.556Z,47.13
2022-10-31T03:00:12.251Z,22.65
2022-10-31T03:01:28.875Z,24.08
2022-10-31T03:02:57.743Z,25.85
2022-10-31T03:04:28.628Z,50.55
2022-10-31T03:05:46.300Z,28.42
2022-10-31T03:06:55.920Z,78.75
2022-10-31T03:08:03.940Z,78.50
2022-10-31T03:09:13.010Z,90.45
2022-10-31T03:10:22.308Z,123.07
2022-10-31T03:11:30.669Z,72.43
2022-10-31T03:12:44.465Z,60.33
2022-10-31T03:13:53.430Z,25.63
2022-10-31T03:15:09.018Z,33.72
2022-10-31T03:16:16.461Z,70.88
2022-10-31T03:17:25.520Z,52.53
2022-10-31T03:18:32.605Z,24.58
2022-10-31T03:19:40.451Z,22.52
2022-10-31T03:20:47.531Z,22.88
2022-10-31T03:21:52.980Z,23.92
2022-10-31T03:23:00.077Z,34.50
2022-10-31T03:24:03.268Z,70.22
2022-10-31T03:25:08.078Z,66.45
2022-10-31T03:26:12.669Z,101.43
2022-10-31T03:27:18.960Z,90.55
2022-10-31T03:28:26.354Z,30.42
2022-10-31T03:29:33.490Z,23.13
2022-10-31T03:30:38.700Z,39.92
2022-10-31T03:31:54.530Z,20.40
2022-10-31T03:32:59.702Z,16.98
2022-10-31T03:34:09.058Z,21.90
2022-10-31T03:35:13.244Z,64.78
2022-10-31T03:36:18.700Z,24.92
2022-10-31T03:37:22.623Z,19.38
2022-10-31T03:38:26.498Z,45.33
2022-10-31T03:39:30.400Z,54.78
2022-10-31T03:40:36.285Z,22.63
2022-10-31T03:41:42.647Z,58.63
2022-10-31T03:42:51.321Z,55.25
2022-10-31T03:44:02.502Z,17.08
2022-10-31T03:45:09.312Z,40.92
2022-10-31T03:46:12.100Z,42.35
2022-10-31T03:47:16.013Z,37.55
2022-10-31T03:48:20.362Z,17.05
2022-10-31T03:49:25.621Z,19.60
2022-10-31T03:50:33.409Z,42.80
2022-10-31T03:51:44.411Z,20.52
2022-10-31T03:52:50.988Z,16.27
2022-10-31T03:53:57.779Z,17.23
2022-10-31T03:55:04.170Z,32.55
2022-10-31T03:56:12.480Z,27.75
2022-10-31T03:57:19.751Z,50.53
2022-10-31T03:58:26.834Z,52.28
2022-10-31T03:59:34.140Z,76.07
2022-10-31T04:00:42.540Z,73.53
2022-10-31T04:01:49.436Z,97.47
2022-10-31T04:02:58.683Z,129.18
2022-10-31T04:04:04.031Z,69.20
2022-10-31T04:05:10.828Z,21.83
2022-10-31T04:06:15.983Z,23.80
2022-10-31T04:07:21.299Z,31.27
2022-10-31T04:08:28.938Z,14.38
2022-10-31T04:09:36.324Z,23.05
2022-10-31T04:10:40.340Z,22.52
2022-10-31T04:11:49.140Z,23.48
2022-10-31T04:13:25.753Z,25.95
2022-10-31T04:14:38.578Z,16.42
2022-10-31T04:15:44.192Z,15.85
2022-10-31T04:16:47.369Z,21.77
2022-10-31T04:17:53.230Z,21.30
2022-10-31T04:18:57.376Z,19.42
2022-10-31T04:20:02.560Z,20.05
2022-10-31T04:21:09.237Z,17.83
2022-10-31T04:22:13.088Z,20.27
2022-10-31T04:23:19.989Z,20.08
2022-10-31T04:24:26.750Z,19.75
2022-10-31T04:25:29.782Z,96.47
2022-10-31T04:26:35.670Z,26.40
2022-10-31T04:27:38.572Z,20.98
2022-10-31T04:28:44.678Z,37.80
2022-10-31T04:29:50.801Z,19.90
2022-10-31T04:30:55.840Z,22.25
2022-10-31T04:31:59.071Z,20.08
2022-10-31T04:33:03.355Z,24.45
2022-10-31T04:34:06.781Z,23.17
2022-10-31T04:35:11.121Z,29.70
2022-10-31T04:36:16.531Z,42.58
2022-10-31T04:37:19.331Z,55.35
2022-10-31T04:38:25.471Z,47.05
2022-10-31T04:39:29.339Z,27.80
2022-10-31T04:40:53.668Z,29.02
2022-10-31T04:42:14.891Z,48.22
2022-10-31T04:44:26.334Z,43.47
2022-10-31T04:45:37.472Z,13.10
2022-10-31T04:46:40.461Z,62.72
2022-10-31T04:47:45.476Z,36.63
2022-10-31T04:48:48.297Z,30.50
2022-10-31T04:49:53.462Z,19.27
2022-10-31T04:51:00.751Z,26.33
2022-10-31T04:52:06.737Z,29.08
2022-10-31T04:53:09.784Z,15.30
2022-10-31T04:54:25.796Z,15.45
2022-10-31T04:55:49.550Z,19.73
2022-10-31T04:56:56.249Z,65.95
2022-10-31T04:58:01.169Z,30.45
2022-10-31T04:59:04.519Z,29.85
2022-10-31T05:00:22.539Z,19.50
2022-10-31T05:01:26.920Z,16.67
2022-10-31T05:02:32.579Z,59.15
2022-10-31T05:03:35.909Z,62.45
2022-10-31T05:04:40.198Z,19.13
2022-10-31T05:05:44.231Z,43.78
2022-10-31T05:06:50.886Z,38.33
2022-10-31T05:07:55.632Z,51.97
2022-10-31T05:09:01.322Z,55.53
2022-10-31T05:10:05.840Z,61.17
2022-10-31T05:11:10.760Z,36.10
2022-10-31T05:12:14.010Z,25.50
2022-10-31T05:13:36.817Z,18.98
2022-10-31T05:14:48.782Z,20.50
2022-10-31T05:16:12.800Z,19.08
2022-10-31T05:17:46.119Z,64.97
2022-10-31T05:19:08.589Z,40.13
2022-10-31T05:20:11.849Z,130.18
2022-10-31T05:21:35.749Z,26.73
2022-10-31T05:22:44.009Z,38.42
2022-10-31T05:23:49.497Z,21.27
2022-10-31T05:24:53.260Z,16.70
2022-10-31T05:25:57.119Z,19.55
2022-10-31T05:26:59.979Z,25.27
2022-10-31T05:28:04.122Z,25.80
2022-10-31T05:29:07.398Z,20.75
2022-10-31T05:30:13.267Z,31.63
2022-10-31T05:31:17.126Z,47.58
2022-10-31T05:32:20.991Z,23.20
2022-10-31T05:33:50.651Z,32.63
2022-10-31T05:35:28.301Z,124.60
2022-10-31T05:36:52.083Z,19.52
2022-10-31T05:37:59.013Z,29.35
2022-10-31T05:39:04.657Z,35.95
2022-10-31T05:40:14.131Z,27.60
2022-10-31T05:41:18.029Z,51.03
2022-10-31T05:42:23.522Z,24.65
2022-10-31T05:43:27.418Z,24.48
2022-10-31T05:44:30.671Z,20.80
2022-10-31T05:45:58.999Z,63.92
2022-10-31T05:47:21.289Z,50.47
2022-10-31T05:48:42.267Z,47.30
2022-10-31T05:50:07.510Z,36.78
2022-10-31T05:51:23.145Z,15.65
2022-10-31T05:52:27.108Z,25.65
2022-10-31T05:53:38.258Z,17.63
2022-10-31T05:54:42.669Z,16.15
2022-10-31T05:55:46.610Z,15.90
2022-10-31T05:56:59.109Z,16.80
2022-10-31T05:58:03.252Z,16.50
2022-10-31T05:59:06.871Z,16.40
2022-10-31T06:00:11.866Z,18.15
2022-10-31T06:01:26.871Z,17.98
2022-10-31T06:02:35.684Z,19.02
2022-10-31T06:03:57.949Z,20.60
2022-10-31T06:05:00.866Z,33.90
2022-10-31T06:06:04.947Z,24.10
2022-10-31T06:07:17.632Z,27.05
2022-10-31T06:08:21.458Z,29.65
2022-10-31T06:09:25.310Z,27.17
2022-10-31T06:10:30.972Z,33.80
2022-10-31T06:11:34.230Z,48.20
2022-10-31T06:12:41.840Z,22.77
2022-10-31T06:14:01.349Z,32.70
2022-10-31T06:15:44.330Z,35.17
2022-10-31T06:16:48.430Z,37.63
2022-10-31T06:18:11.105Z,28.38
2022-10-31T06:19:25.250Z,24.00
2022-10-31T06:20:29.218Z,29.40
2022-10-31T06:21:40.349Z,28.38
2022-10-31T06:22:43.084Z,26.65
2022-10-31T06:23:46.940Z,29.85
2022-10-31T06:25:23.139Z,32.58
2022-10-31T06:26:29.073Z,32.42
2022-10-31T06:27:32.013Z,32.95
2022-10-31T06:28:42.055Z,30.70
2022-10-31T06:30:01.587Z,39.97
2022-10-31T06:31:07.763Z,37.22
2022-10-31T06:32:13.180Z,33.60
2022-10-31T06:33:19.199Z,35.17
2022-10-31T06:34:32.912Z,31.65
2022-10-31T06:35:36.079Z,33.35
2022-10-31T06:36:46.984Z,37.50
2022-10-31T06:37:57.917Z,34.47
2022-10-31T06:39:13.193Z,29.13
2022-10-31T06:40:17.370Z,27.05
2022-10-31T06:41:45.272Z,26.55
2022-10-31T06:42:49.070Z,29.55
2022-10-31T06:43:53.031Z,23.95
2022-10-31T06:45:13.779Z,25.85
2022-10-31T06:46:48.827Z,23.63
2022-10-31T06:48:17.188Z,27.63
2022-10-31T06:49:49.271Z,21.42
2022-10-31T06:51:01.716Z,19.67
2022-10-31T06:52:06.327Z,21.23
2022-10-31T06:54:18.998Z,21.45
2022-10-31T06:55:23.774Z,17.88
2022-10-31T06:56:27.604Z,20.23
2022-10-31T06:57:34.068Z,17.70
2022-10-31T06:58:38.019Z,18.48
2022-10-31T06:59:43.211Z,22.48
2022-10-31T07:01:05.670Z,18.85
2022-10-31T07:02:10.862Z,21.50
2022-10-31T07:03:17.767Z,23.30
2022-10-31T07:04:21.589Z,15.88
2022-10-31T07:05:25.771Z,17.63
2022-10-31T07:06:29.799Z,22.92
2022-10-31T07:07:32.851Z,16.42
2022-10-31T07:08:36.838Z,14.75
2022-10-31T07:09:40.910Z,17.45
2022-10-31T07:10:54.078Z,15.40
2022-10-31T07:11:57.851Z,14.20
2022-10-31T07:13:05.199Z,18.67
2022-10-31T07:14:12.221Z,17.85
2022-10-31T07:15:15.377Z,15.50
2022-10-31T07:16:19.202Z,18.10
2022-10-31T07:17:29.878Z,15.45
2022-10-31T07:18:37.454Z,20.75
2022-10-31T07:19:40.398Z,16.30
2022-10-31T07:20:45.927Z,19.80
2022-10-31T07:21:48.797Z,17.92
2022-10-31T07:22:53.667Z,19.70
2022-10-31T07:23:57.320Z,19.00
2022-10-31T07:25:19.724Z,19.42
2022-10-31T07:26:44.084Z,22.33
2022-10-31T07:27:47.560Z,23.45
2022-10-31T07:28:52.924Z,22.90
2022-10-31T07:29:59.045Z,26.02
2022-10-31T07:31:04.490Z,29.20
2022-10-31T07:32:07.307Z,25.15
2022-10-31T07:33:14.229Z,30.95
2022-10-31T07:34:37.928Z,26.58
2022-10-31T07:36:08.798Z,26.85
2022-10-31T07:37:12.281Z,26.75
2022-10-31T07:38:17.419Z,28.77
2022-10-31T07:39:21.819Z,29.77
2022-10-31T07:40:26.273Z,28.25
2022-10-31T07:41:31.471Z,31.13
2022-10-31T07:42:37.186Z,26.45
2022-10-31T07:43:41.925Z,29.55
2022-10-31T07:45:12.298Z,31.75
2022-10-31T07:46:44.867Z,32.05
2022-10-31T07:48:14.720Z,31.55
2022-10-31T07:49:47.672Z,25.45
2022-10-31T07:51:10.045Z,26.77
2022-10-31T07:52:36.999Z,30.63
2022-10-31T07:54:00.992Z,27.52
2022-10-31T07:55:08.727Z,26.60
2022-10-31T07:56:13.457Z,30.02
2022-10-31T07:57:19.204Z,27.35
2022-10-31T07:58:26.360Z,31.02
2022-10-31T07:59:29.078Z,30.00
2022-10-31T08:00:35.551Z,30.55
2022-10-31T08:01:39.571Z,34.72
2022-10-31T08:03:05.574Z,29.73
2022-10-31T08:04:38.523Z,27.42
2022-10-31T08:06:15.517Z,25.23
2022-10-31T08:07:40.950Z,26.00
2022-10-31T08:08:53.789Z,27.95
2022-10-31T08:09:56.701Z,28.00
2022-10-31T08:11:04.330Z,32.25
2022-10-31T08:12:08.448Z,29.15
2022-10-31T08:13:15.021Z,30.80
2022-10-31T08:14:22.358Z,32.55
2022-10-31T08:15:28.626Z,28.13
2022-10-31T08:16:35.847Z,27.55
2022-10-31T08:17:43.419Z,28.20
2022-10-31T08:18:49.049Z,30.95
2022-10-31T08:20:00.497Z,33.38
2022-10-31T08:21:13.558Z,28.15
2022-10-31T08:22:16.271Z,30.60
2022-10-31T08:23:21.640Z,33.90
2022-10-31T08:24:24.652Z,35.38
2022-10-31T08:25:32.310Z,29.27
2022-10-31T08:26:40.088Z,29.92
2022-10-31T08:27:50.433Z,29.70
2022-10-31T08:28:55.912Z,25.80
2022-10-31T08:30:01.951Z,24.90
2022-10-31T08:31:06.976Z,26.48
2022-10-31T08:32:16.858Z,31.55
2022-10-31T08:33:39.127Z,25.15
2022-10-31T08:35:00.563Z,25.13
2022-10-31T08:36:22.975Z,30.33
2022-10-31T08:37:46.958Z,24.80
2022-10-31T08:38:51.121Z,25.98
2022-10-31T08:39:54.078Z,24.67
2022-10-31T08:40:58.780Z,24.40
2022-10-31T08:42:02.608Z,24.20
2022-10-31T08:43:08.116Z,20.38
2022-10-31T08:44:12.268Z,22.88
2022-10-31T08:45:15.296Z,27.23
2022-10-31T08:46:19.710Z,23.38
2022-10-31T08:47:25.044Z,26.23
2022-10-31T08:48:29.025Z,24.60
2022-10-31T08:49:33.769Z,23.63
2022-10-31T08:50:38.639Z,23.25
2022-10-31T08:51:41.401Z,26.17
2022-10-31T08:53:04.094Z,19.13
2022-10-31T08:54:10.190Z,21.05
2022-10-31T08:55:32.330Z,22.88
2022-10-31T08:56:39.877Z,20.42
2022-10-31T08:58:00.663Z,25.55
2022-10-31T08:59:13.411Z,18.42
2022-10-31T09:00:46.490Z,21.85
2022-10-31T09:01:53.074Z,20.13
2022-10-31T09:03:02.097Z,17.40
2022-10-31T09:04:08.134Z,15.38
2022-10-31T09:05:12.543Z,18.73
2022-10-31T09:06:16.483Z,20.05
2022-10-31T09:07:20.986Z,25.50
2022-10-31T09:08:25.819Z,22.35
2022-10-31T09:09:28.751Z,22.00
2022-10-31T09:10:33.977Z,22.30
2022-10-31T09:11:40.349Z,25.95
2022-10-31T09:12:59.764Z,19.90
2022-10-31T09:14:32.815Z,18.25
2022-10-31T09:16:01.012Z,21.08
2022-10-31T09:17:04.529Z,20.55
2022-10-31T09:18:29.121Z,15.77
2022-10-31T09:19:34.541Z,17.00
2022-10-31T09:20:39.501Z,30.73
2022-10-31T09:21:42.884Z,26.65
2022-10-31T09:22:46.838Z,16.65
2022-10-31T09:23:50.851Z,23.15
2022-10-31T09:24:54.099Z,40.88
2022-10-31T09:25:58.509Z,20.85
2022-10-31T09:27:09.688Z,21.88
2022-10-31T09:28:19.230Z,18.40
2022-10-31T09:29:23.828Z,17.45
2022-10-31T09:30:34.239Z,17.50
2022-10-31T09:31:44.910Z,21.77
2022-10-31T09:33:20.316Z,38.25
2022-10-31T09:34:43.081Z,20.17
2022-10-31T09:35:54.149Z,18.00
2022-10-31T09:36:59.468Z,16.55
2022-10-31T09:38:04.830Z,16.80
2022-10-31T09:39:10.237Z,21.40
2022-10-31T09:40:15.420Z,25.92
2022-10-31T09:41:26.664Z,22.08
2022-10-31T09:42:51.949Z,17.73
2022-10-31T09:44:04.208Z,15.63
2022-10-31T09:45:13.332Z,35.05
2022-10-31T09:46:23.257Z,23.75
2022-10-31T09:47:37.959Z,21.30
2022-10-31T09:49:43.829Z,20.25
2022-10-31T09:50:51.360Z,15.88
2022-10-31T09:52:20.059Z,37.28
2022-10-31T09:53:27.656Z,25.38
2022-10-31T09:54:36.635Z,18.85
2022-10-31T09:55:42.228Z,20.10
2022-10-31T09:56:46.567Z,19.70
2022-10-31T09:57:49.592Z,23.95
2022-10-31T09:58:56.510Z,36.28
2022-10-31T10:00:01.138Z,23.80
2022-10-31T10:01:05.971Z,20.88
2022-10-31T10:02:16.765Z,23.30
2022-10-31T10:03:34.320Z,25.40
2022-10-31T10:04:52.953Z,19.60
2022-10-31T10:06:03.940Z,20.60
2022-10-31T10:07:37.149Z,29.77
2022-10-31T10:08:59.466Z,20.75
2022-10-31T10:10:29.640Z,19.77
2022-10-31T10:12:16.200Z,22.35
2022-10-31T10:13:39.548Z,22.02
2022-10-31T10:15:02.645Z,29.95
2022-10-31T10:16:19.700Z,22.33
2022-10-31T10:17:29.884Z,25.92
2022-10-31T10:18:41.757Z,21.80
2022-10-31T10:20:04.226Z,22.98
2022-10-31T10:21:19.420Z,17.00
2022-10-31T10:22:31.261Z,25.77
2022-10-31T10:23:45.834Z,43.65
2022-10-31T10:25:04.937Z,17.90
2022-10-31T10:26:17.850Z,24.98
2022-10-31T10:27:28.337Z,24.25
2022-10-31T10:28:39.408Z,27.13
2022-10-31T10:29:47.510Z,42.42
2022-10-31T10:30:53.577Z,41.67
2022-10-31T10:31:58.014Z,45.63
2022-10-31T10:33:06.443Z,22.45
2022-10-31T10:34:15.902Z,27.30
2022-10-31T10:35:26.990Z,25.88
2022-10-31T10:36:35.821Z,18.65
2022-10-31T10:37:41.098Z,21.50
2022-10-31T10:38:51.599Z,21.95
2022-10-31T10:39:57.350Z,27.75
2022-10-31T10:41:03.499Z,20.25
2022-10-31T10:42:29.819Z,19.90
2022-10-31T10:43:35.296Z,21.52
2022-10-31T10:44:57.604Z,39.30
2022-10-31T10:46:28.488Z,23.75
2022-10-31T10:47:42.786Z,23.30
2022-10-31T10:48:46.899Z,26.70
2022-10-31T10:49:52.992Z,15.45
2022-10-31T10:50:57.199Z,27.83
2022-10-31T10:52:19.432Z,23.13
2022-10-31T10:53:36.890Z,21.98
2022-10-31T10:55:01.509Z,22.38
2022-10-31T10:56:13.526Z,15.30
2022-10-31T10:57:25.727Z,16.85
2022-10-31T10:58:29.789Z,19.13
2022-10-31T10:59:33.858Z,20.38
2022-10-31T11:00:38.014Z,20.13
2022-10-31T11:01:43.297Z,18.77
2022-10-31T11:02:49.009Z,15.27
2022-10-31T11:03:52.200Z,17.75
2022-10-31T11:04:57.594Z,18.08
2022-10-31T11:06:03.070Z,13.63
2022-10-31T11:07:07.780Z,14.10
2022-10-31T11:08:11.784Z,11.48
2022-10-31T11:09:17.225Z,13.95
2022-10-31T11:10:21.291Z,20.88
2022-10-31T11:11:32.132Z,13.70
2022-10-31T11:12:35.442Z,16.80
2022-10-31T11:13:39.569Z,13.95
2022-10-31T11:14:49.844Z,11.20
2022-10-31T11:15:56.891Z,16.45
2022-10-31T11:17:10.942Z,13.68
2022-10-31T11:18:22.517Z,11.57
2022-10-31T11:19:28.789Z,19.35
2022-10-31T11:20:35.834Z,13.65
2022-10-31T11:21:40.297Z,15.07
2022-10-31T11:22:45.093Z,13.68
2022-10-31T11:23:49.567Z,17.48
2022-10-31T11:24:53.463Z,20.23
2022-10-31T11:25:58.333Z,14.48
2022-10-31T11:27:16.541Z,15.10
2022-10-31T11:28:19.432Z,19.60
2022-10-31T11:29:26.186Z,15.85
2022-10-31T11:30:29.398Z,14.00
2022-10-31T11:31:34.117Z,17.38
2022-10-31T11:32:39.153Z,29.20
2022-10-31T11:33:48.546Z,20.23
2022-10-31T11:34:55.128Z,18.02
2022-10-31T11:35:58.879Z,19.20
2022-10-31T11:37:12.418Z,20.88
2022-10-31T11:38:19.395Z,16.67
2022-10-31T11:39:25.197Z,24.50
2022-10-31T11:40:28.994Z,14.60
2022-10-31T11:41:35.658Z,17.35
2022-10-31T11:42:42.011Z,17.20
2022-10-31T11:43:49.144Z,16.90
2022-10-31T11:44:54.148Z,19.63
2022-10-31T11:45:58.517Z,16.67
2022-10-31T11:47:04.687Z,22.23
2022-10-31T11:48:19.019Z,13.73
2022-10-31T11:49:32.953Z,14.68
2022-10-31T11:50:38.639Z,18.15
2022-10-31T11:51:42.736Z,15.05
2022-10-31T11:52:47.109Z,14.10
2022-10-31T11:54:01.687Z,15.27
2022-10-31T11:55:18.894Z,24.42
2022-10-31T11:56:23.166Z,17.08
2022-10-31T11:57:29.406Z,15.57
2022-10-31T11:58:33.497Z,16.08
2022-10-31T11:59:37.320Z,22.25
2022-10-31T12:00:42.089Z,16.13
2022-10-31T12:01:50.185Z,16.53
2022-10-31T12:02:53.334Z,16.95
2022-10-31T12:04:05.738Z,16.15
2022-10-31T12:05:12.282Z,12.50
2022-10-31T12:06:20.227Z,14.03
2022-10-31T12:07:24.975Z,15.70
2022-10-31T12:08:33.030Z,13.53
2022-10-31T12:09:38.207Z,12.85
2022-10-31T12:10:48.557Z,13.00
2022-10-31T12:12:12.663Z,13.73
2022-10-31T12:13:29.648Z,15.13
2022-10-31T12:14:40.427Z,12.60
2022-10-31T12:15:48.058Z,18.77
2022-10-31T12:16:56.385Z,16.55
2022-10-31T12:18:25.333Z,9.03
2022-10-31T12:19:38.898Z,14.85
2022-10-31T12:20:50.860Z,16.97
2022-10-31T12:22:05.649Z,15.85
2022-10-31T12:23:17.683Z,27.10
2022-10-31T12:24:35.414Z,15.87
2022-10-31T12:25:46.612Z,18.30
2022-10-31T12:26:58.179Z,11.53
2022-10-31T12:28:24.219Z,13.23
2022-10-31T12:29:42.658Z,15.57
2022-10-31T12:30:57.547Z,18.23
2022-10-31T12:32:16.674Z,11.87
2022-10-31T12:33:35.329Z,17.30
2022-10-31T12:34:50.677Z,12.43
2022-10-31T12:36:02.511Z,13.87
2022-10-31T12:37:10.229Z,12.03
2022-10-31T12:38:26.939Z,14.60
2022-10-31T12:39:39.790Z,16.03
2022-10-31T12:40:57.557Z,16.60
2022-10-31T12:42:07.348Z,17.13
2022-10-31T12:43:23.273Z,15.00
2022-10-31T12:45:05.397Z,12.67
2022-10-31T12:46:12.648Z,13.33
2022-10-31T12:47:35.630Z,14.77
2022-10-31T12:49:05.166Z,15.77
2022-10-31T12:50:20.799Z,15.60
2022-10-31T12:51:34.248Z,12.83
2022-10-31T12:52:47.299Z,11.80
2022-10-31T12:54:03.616Z,16.57
2022-10-31T12:55:22.198Z,18.57
2022-10-31T12:56:34.019Z,13.43
2022-10-31T12:57:41.952Z,18.50
2022-10-31T12:58:48.297Z,12.87
2022-10-31T12:59:55.939Z,13.33
2022-10-31T13:01:15.848Z,22.13
2022-10-31T13:02:22.457Z,28.63
2022-10-31T13:03:34.641Z,21.43
2022-10-31T13:04:45.116Z,10.87
2022-10-31T13:05:52.147Z,17.83
2022-10-31T13:06:58.457Z,21.27
2022-10-31T13:08:06.008Z,13.87
2022-10-31T13:09:12.078Z,15.33
2022-10-31T13:10:22.470Z,12.67
2022-10-31T13:11:30.330Z,12.67
2022-10-31T13:12:37.460Z,20.20
2022-10-31T13:13:44.198Z,12.13
2022-10-31T13:14:50.857Z,12.40
2022-10-31T13:15:57.577Z,14.03
2022-10-31T13:17:01.375Z,15.30
2022-10-31T13:18:08.669Z,12.87
2022-10-31T13:19:15.162Z,10.90
2022-10-31T13:20:24.436Z,12.33
2022-10-31T13:21:31.767Z,15.77
2022-10-31T13:22:36.985Z,11.93
2022-10-31T13:23:50.928Z,14.13
2022-10-31T13:24:59.506Z,18.40
2022-10-31T13:26:11.327Z,12.67
2022-10-31T13:27:18.027Z,19.87
2022-10-31T13:28:28.720Z,12.73
2022-10-31T13:29:35.608Z,15.73
2022-10-31T13:30:39.571Z,10.70
2022-10-31T13:31:44.009Z,18.40
2022-10-31T13:32:49.448Z,11.83
2022-10-31T13:33:57.116Z,13.17
2022-10-31T13:35:00.792Z,15.37
2022-10-31T13:36:15.540Z,11.60
2022-10-31T13:37:26.129Z,10.20
2022-10-31T13:38:36.098Z,14.00
2022-10-31T13:39:49.439Z,12.90
2022-10-31T13:40:57.761Z,25.23
2022-10-31T13:42:05.369Z,22.03
2022-10-31T13:43:16.542Z,12.13
2022-10-31T13:44:20.969Z,14.30
2022-10-31T13:45:27.158Z,14.20
2022-10-31T13:46:37.882Z,12.83
2022-10-31T13:47:43.747Z,14.80
2022-10-31T13:48:47.629Z,29.37
2022-10-31T13:49:50.361Z,16.17
2022-10-31T13:51:03.462Z,13.50
2022-10-31T13:52:16.555Z,12.20
2022-10-31T13:53:23.257Z,11.03
2022-10-31T13:54:34.327Z,10.73
2022-10-31T13:55:39.789Z,14.47
2022-10-31T13:56:43.782Z,13.13
2022-10-31T13:57:49.248Z,18.67
2022-10-31T13:59:05.229Z,13.93
2022-10-31T14:00:28.990Z,15.20
2022-10-31T14:01:36.694Z,12.90
2022-10-31T14:02:48.488Z,15.90
2022-10-31T14:04:19.318Z,26.87
2022-10-31T14:05:28.289Z,64.10
2022-10-31T14:06:44.933Z,80.77
2022-10-31T14:07:49.224Z,35.40
2022-10-31T14:08:53.162Z,65.07
2022-10-31T14:10:01.376Z,100.23
2022-10-31T14:11:05.425Z,44.63
2022-10-31T14:12:12.949Z,54.03
2022-10-31T14:13:21.510Z,53.97
2022-10-31T14:14:29.249Z,94.07
2022-10-31T14:15:34.068Z,494.23
2022-10-31T14:16:39.678Z,436.00
2022-10-31T14:17:49.579Z,288.60
2022-10-31T14:19:00.440Z,393.27
2022-10-31T14:20:24.580Z,134.03
2022-10-31T14:21:30.977Z,199.83
2022-10-31T14:22:43.074Z,72.57
2022-10-31T14:23:49.515Z,113.87
2022-10-31T14:24:55.090Z,110.20
2022-10-31T14:26:10.189Z,121.72
2022-10-31T14:27:37.009Z,136.90
2022-10-31T14:28:42.192Z,180.63
2022-10-31T14:29:50.194Z,165.00
2022-10-31T14:30:55.861Z,268.53
2022-10-31T14:32:12.123Z,193.53
2022-10-31T14:33:19.632Z,332.83
2022-10-31T14:34:26.669Z,286.42
2022-10-31T14:35:46.049Z,268.80
2022-10-31T14:37:12.303Z,208.07
2022-10-31T14:38:39.787Z,146.27
2022-10-31T14:39:52.389Z,106.28
2022-10-31T14:41:21.759Z,138.98
2022-10-31T14:42:36.779Z,156.35
2022-10-31T14:44:07.651Z,110.20
2022-10-31T14:45:20.707Z,90.55
2022-10-31T14:46:38.380Z,85.13
2022-10-31T14:47:49.709Z,82.95
2022-10-31T14:49:02.749Z,91.10
2022-10-31T14:50:23.150Z,36.70
2022-10-31T14:51:29.384Z,46.20
2022-10-31T14:52:32.510Z,55.40
2022-10-31T14:53:38.319Z,40.05
2022-10-31T14:54:42.859Z,41.63
2022-10-31T14:55:50.319Z,38.95
2022-10-31T14:56:55.381Z,32.60